Strona główna
METAR-TAF:

METAR-TAF

Lotnisko :

Gagetown, Nowy Brunszwik, Kanada

Szerokość geograficzna: 45-50N, Długość geograficzna: 066-26W, wysokość: 51 m

Aktualna obserwacja pogody

Raport powstał 52 minut temu, godzina 15:00 UTC
Wiatr 8 kt od zachód
Temperatura 6°C
Wilgotność 36%
Ciśnienie 1019 hPa
Widzialność: 14.5 km
bezchmurnie

METAR: CYCX 281500Z AUTO 28008KT 9SM CLR 06/M08 A3008 RMK SLP186

czas: 12:52 (15:52 UTC)


TAF: brakujący

Obserwacja i prognoza pogody dla ponad 4000 lotnisk (raport METAR i TAF).

Dostępne stacje oznaczono żółtymi i czerwonymi punktami na mapie.

Najedź kursorem aby zobaczyć nazwę stacji.

Kliknij aby zobaczyć obserwacje i prognozy pogody.

Aby zmienić mapę: kliknij na zielony przycisk z czarnym krzyżykiem, aby powiększyć; na zielony przycisk z myślnikiem, aby pomniejszyć; na zielone strzałki, aby przejść do map sąsiednich.


METAR-TAF: